Allen, Kansas
Current Conditions -  °F | °C
As of 10:40 PM on Saturday 20 Dec 2014 (Local Time) from KEMP Reporting Station
Broken Clouds Broken Clouds  
Wind Chill: 25°   Ceiling: 2100
Heat Index: 34°   Visibility: 8mi
Dew Point: 33°   Wind: 12mph
Humidity: 96%   Direction: 180°S
Pressure: 30.1"   Gusts: NA
Location:  38.66°N, 96.17°W
Report Text: KEMP 210440Z AUTO 18010KT 8SM BKN021 01/01 A3010 RMK AO2 T00110006
Loading
Personal Weather Stations






























Interactive Weather Map New forecast layout! Learn more

10-Day Weather Forecast

Advertisements
Track Severe Weather on mobile